sensor_id;sensor_type;location;lat;lon;timestamp;P1;durP1;ratioP1;P2;durP2;ratioP2
46318;SDS011;32042;50.916;2.926;2022-08-24T00:00:55;2.83;;;2.20;;
46318;SDS011;32042;50.916;2.926;2022-08-24T00:03:21;2.42;;;2.22;;
46318;SDS011;32042;50.916;2.926;2022-08-24T00:05:48;2.22;;;1.83;;
46318;SDS011;32042;50.916;2.926;2022-08-24T00:08:14;4.53;;;2.65;;
46318;SDS011;32042;50.916;2.926;2022-08-24T00:10:41;2.95;;;2.65;;
46318;SDS011;32042;50.916;2.926;2022-08-24T00:13:07;4.63;;;2.65;;
46318;SDS011;32042;50.916;2.926;2022-08-24T00:15:33;4.70;;;2.88;;
46318;SDS011;32042;50.916;2.926;2022-08-24T00:17:59;4.30;;;2.75;;
46318;SDS011;32042;50.916;2.926;2022-08-24T00:20:25;2.40;;;2.25;;
46318;SDS011;32042;50.916;2.926;2022-08-24T00:22:51;2.25;;;2.08;;
46318;SDS011;32042;50.916;2.926;2022-08-24T00:25:17;2.35;;;2.15;;
46318;SDS011;32042;50.916;2.926;2022-08-24T00:27:44;4.53;;;2.67;;
46318;SDS011;32042;50.916;2.926;2022-08-24T00:30:12;4.18;;;2.58;;
46318;SDS011;32042;50.916;2.926;2022-08-24T00:32:42;5.78;;;2.50;;
46318;SDS011;32042;50.916;2.926;2022-08-24T00:35:09;4.65;;;2.75;;
46318;SDS011;32042;50.916;2.926;2022-08-24T00:37:36;4.03;;;2.42;;
46318;SDS011;32042;50.916;2.926;2022-08-24T00:40:04;4.30;;;2.80;;
46318;SDS011;32042;50.916;2.926;2022-08-24T00:42:36;4.28;;;2.80;;
46318;SDS011;32042;50.916;2.926;2022-08-24T00:45:04;2.85;;;2.38;;
46318;SDS011;32042;50.916;2.926;2022-08-24T00:47:33;7.82;;;3.00;;
46318;SDS011;32042;50.916;2.926;2022-08-24T00:50:11;2.58;;;2.38;;
46318;SDS011;32042;50.916;2.926;2022-08-24T00:52:57;6.68;;;2.42;;
46318;SDS011;32042;50.916;2.926;2022-08-24T00:55:35;3.22;;;2.40;;
46318;SDS011;32042;50.916;2.926;2022-08-24T00:58:26;3.22;;;2.92;;
46318;SDS011;32042;50.916;2.926;2022-08-24T01:00:57;5.50;;;2.78;;
46318;SDS011;32042;50.916;2.926;2022-08-24T01:03:26;3.40;;;2.28;;
46318;SDS011;32042;50.916;2.926;2022-08-24T01:05:52;3.92;;;2.95;;
46318;SDS011;32042;50.916;2.926;2022-08-24T01:08:20;2.90;;;2.70;;
46318;SDS011;32042;50.916;2.926;2022-08-24T01:11:22;5.18;;;3.10;;
46318;SDS011;32042;50.916;2.926;2022-08-24T01:13:42;3.03;;;2.63;;
46318;SDS011;32042;50.916;2.926;2022-08-24T01:16:11;3.78;;;2.92;;
46318;SDS011;32042;50.916;2.926;2022-08-24T01:18:39;3.70;;;3.40;;
46318;SDS011;32042;50.916;2.926;2022-08-24T01:23:44;3.35;;;3.05;;
46318;SDS011;32042;50.916;2.926;2022-08-24T01:28:51;3.15;;;2.85;;
46318;SDS011;32042;50.916;2.926;2022-08-24T01:31:23;3.15;;;2.75;;
46318;SDS011;32042;50.916;2.926;2022-08-24T01:33:49;4.05;;;2.70;;
46318;SDS011;32042;50.916;2.926;2022-08-24T01:36:19;3.17;;;2.92;;
46318;SDS011;32042;50.916;2.926;2022-08-24T01:39:02;3.50;;;2.85;;
46318;SDS011;32042;50.916;2.926;2022-08-24T01:41:37;3.33;;;3.03;;
46318;SDS011;32042;50.916;2.926;2022-08-24T01:44:03;3.35;;;2.63;;
46318;SDS011;32042;50.916;2.926;2022-08-24T01:46:30;4.00;;;3.45;;
46318;SDS011;32042;50.916;2.926;2022-08-24T01:48:56;3.47;;;3.17;;
46318;SDS011;32042;50.916;2.926;2022-08-24T01:51:22;3.65;;;3.35;;
46318;SDS011;32042;50.916;2.926;2022-08-24T01:53:49;4.22;;;3.08;;
46318;SDS011;32042;50.916;2.926;2022-08-24T01:56:15;3.28;;;3.08;;
46318;SDS011;32042;50.916;2.926;2022-08-24T01:58:42;3.80;;;3.50;;
46318;SDS011;32042;50.916;2.926;2022-08-24T02:01:09;11.68;;;4.05;;
46318;SDS011;32042;50.916;2.926;2022-08-24T02:03:35;4.10;;;3.67;;
46318;SDS011;32042;50.916;2.926;2022-08-24T02:06:00;6.38;;;3.70;;
46318;SDS011;32042;50.916;2.926;2022-08-24T02:08:27;3.92;;;3.60;;
46318;SDS011;32042;50.916;2.926;2022-08-24T02:10:53;3.47;;;3.17;;
46318;SDS011;32042;50.916;2.926;2022-08-24T02:13:18;5.28;;;4.10;;
46318;SDS011;32042;50.916;2.926;2022-08-24T02:15:44;5.18;;;3.38;;
46318;SDS011;32042;50.916;2.926;2022-08-24T02:18:10;4.43;;;4.03;;
46318;SDS011;32042;50.916;2.926;2022-08-24T02:20:36;4.40;;;4.03;;
46318;SDS011;32042;50.916;2.926;2022-08-24T02:23:03;5.15;;;4.75;;
46318;SDS011;32042;50.916;2.926;2022-08-24T02:25:29;5.25;;;4.78;;
46318;SDS011;32042;50.916;2.926;2022-08-24T02:27:58;4.07;;;3.67;;
46318;SDS011;32042;50.916;2.926;2022-08-24T02:30:25;4.07;;;3.70;;
46318;SDS011;32042;50.916;2.926;2022-08-24T02:32:53;3.70;;;3.40;;
46318;SDS011;32042;50.916;2.926;2022-08-24T02:35:19;4.38;;;3.97;;
46318;SDS011;32042;50.916;2.926;2022-08-24T02:37:47;3.72;;;3.42;;
46318;SDS011;32042;50.916;2.926;2022-08-24T02:40:14;4.22;;;3.92;;
46318;SDS011;32042;50.916;2.926;2022-08-24T02:42:41;4.95;;;4.22;;
46318;SDS011;32042;50.916;2.926;2022-08-24T02:45:08;12.40;;;4.80;;
46318;SDS011;32042;50.916;2.926;2022-08-24T02:47:36;5.75;;;4.40;;
46318;SDS011;32042;50.916;2.926;2022-08-24T02:50:03;6.32;;;4.40;;
46318;SDS011;32042;50.916;2.926;2022-08-24T02:52:32;5.18;;;4.40;;
46318;SDS011;32042;50.916;2.926;2022-08-24T02:54:59;6.10;;;4.30;;
46318;SDS011;32042;50.916;2.926;2022-08-24T02:57:25;5.57;;;4.53;;
46318;SDS011;32042;50.916;2.926;2022-08-24T02:59:52;5.18;;;4.78;;
46318;SDS011;32042;50.916;2.926;2022-08-24T03:02:18;4.70;;;4.30;;
46318;SDS011;32042;50.916;2.926;2022-08-24T03:04:44;5.13;;;4.50;;
46318;SDS011;32042;50.916;2.926;2022-08-24T03:07:10;5.07;;;4.35;;
46318;SDS011;32042;50.916;2.926;2022-08-24T03:09:36;4.20;;;3.80;;
46318;SDS011;32042;50.916;2.926;2022-08-24T03:12:01;4.93;;;3.80;;
46318;SDS011;32042;50.916;2.926;2022-08-24T03:14:29;3.90;;;3.60;;
46318;SDS011;32042;50.916;2.926;2022-08-24T03:16:54;4.07;;;3.28;;
46318;SDS011;32042;50.916;2.926;2022-08-24T03:19:20;3.47;;;2.85;;
46318;SDS011;32042;50.916;2.926;2022-08-24T03:21:46;4.03;;;3.67;;
46318;SDS011;32042;50.916;2.926;2022-08-24T03:24:12;5.38;;;3.20;;
46318;SDS011;32042;50.916;2.926;2022-08-24T03:26:38;3.88;;;3.47;;
46318;SDS011;32042;50.916;2.926;2022-08-24T03:29:04;2.55;;;2.30;;
46318;SDS011;32042;50.916;2.926;2022-08-24T03:31:30;3.47;;;2.63;;
46318;SDS011;32042;50.916;2.926;2022-08-24T03:33:56;2.90;;;2.50;;
46318;SDS011;32042;50.916;2.926;2022-08-24T03:36:22;4.25;;;3.90;;
46318;SDS011;32042;50.916;2.926;2022-08-24T03:38:47;4.00;;;3.58;;
46318;SDS011;32042;50.916;2.926;2022-08-24T03:41:14;5.22;;;4.00;;
46318;SDS011;32042;50.916;2.926;2022-08-24T03:43:39;6.90;;;4.28;;
46318;SDS011;32042;50.916;2.926;2022-08-24T03:46:13;4.53;;;4.05;;
46318;SDS011;32042;50.916;2.926;2022-08-24T03:48:47;4.30;;;3.90;;
46318;SDS011;32042;50.916;2.926;2022-08-24T03:51:14;4.68;;;3.83;;
46318;SDS011;32042;50.916;2.926;2022-08-24T03:53:42;4.15;;;3.83;;
46318;SDS011;32042;50.916;2.926;2022-08-24T03:56:09;3.72;;;3.42;;
46318;SDS011;32042;50.916;2.926;2022-08-24T03:58:36;4.95;;;3.85;;
46318;SDS011;32042;50.916;2.926;2022-08-24T04:01:03;5.38;;;4.05;;
46318;SDS011;32042;50.916;2.926;2022-08-24T04:03:29;4.72;;;3.80;;
46318;SDS011;32042;50.916;2.926;2022-08-24T04:05:58;4.03;;;3.70;;
46318;SDS011;32042;50.916;2.926;2022-08-24T04:08:25;5.72;;;3.83;;
46318;SDS011;32042;50.916;2.926;2022-08-24T04:10:51;3.72;;;3.42;;
46318;SDS011;32042;50.916;2.926;2022-08-24T04:13:18;4.07;;;3.67;;
46318;SDS011;32042;50.916;2.926;2022-08-24T04:15:44;4.65;;;3.75;;
46318;SDS011;32042;50.916;2.926;2022-08-24T04:18:10;3.40;;;3.10;;
46318;SDS011;32042;50.916;2.926;2022-08-24T04:20:39;5.97;;;3.53;;
46318;SDS011;32042;50.916;2.926;2022-08-24T04:23:07;4.13;;;3.05;;
46318;SDS011;32042;50.916;2.926;2022-08-24T04:25:41;3.50;;;3.10;;
46318;SDS011;32042;50.916;2.926;2022-08-24T04:28:08;3.85;;;3.45;;
46318;SDS011;32042;50.916;2.926;2022-08-24T04:30:38;6.57;;;4.10;;
46318;SDS011;32042;50.916;2.926;2022-08-24T04:33:08;5.10;;;3.83;;
46318;SDS011;32042;50.916;2.926;2022-08-24T04:35:39;25.85;;;5.05;;
46318;SDS011;32042;50.916;2.926;2022-08-24T04:38:07;6.32;;;4.85;;
46318;SDS011;32042;50.916;2.926;2022-08-24T04:40:33;7.70;;;4.55;;
46318;SDS011;32042;50.916;2.926;2022-08-24T04:43:03;6.10;;;5.18;;
46318;SDS011;32042;50.916;2.926;2022-08-24T04:45:29;6.10;;;5.28;;
46318;SDS011;32042;50.916;2.926;2022-08-24T04:47:54;7.80;;;5.15;;
46318;SDS011;32042;50.916;2.926;2022-08-24T04:50:20;7.03;;;4.72;;
46318;SDS011;32042;50.916;2.926;2022-08-24T04:52:46;6.55;;;4.53;;
46318;SDS011;32042;50.916;2.926;2022-08-24T04:55:11;5.28;;;4.78;;
46318;SDS011;32042;50.916;2.926;2022-08-24T04:57:37;10.32;;;5.40;;
46318;SDS011;32042;50.916;2.926;2022-08-24T05:00:04;7.13;;;4.97;;
46318;SDS011;32042;50.916;2.926;2022-08-24T05:02:30;9.00;;;4.90;;
46318;SDS011;32042;50.916;2.926;2022-08-24T05:04:56;9.50;;;5.13;;
46318;SDS011;32042;50.916;2.926;2022-08-24T05:07:22;7.55;;;4.68;;
46318;SDS011;32042;50.916;2.926;2022-08-24T05:09:49;10.32;;;4.75;;
46318;SDS011;32042;50.916;2.926;2022-08-24T05:12:15;9.88;;;4.90;;
46318;SDS011;32042;50.916;2.926;2022-08-24T05:14:41;14.27;;;6.25;;
46318;SDS011;32042;50.916;2.926;2022-08-24T05:17:06;10.15;;;5.15;;
46318;SDS011;32042;50.916;2.926;2022-08-24T05:19:32;7.43;;;4.10;;
46318;SDS011;32042;50.916;2.926;2022-08-24T05:21:58;8.98;;;4.15;;
46318;SDS011;32042;50.916;2.926;2022-08-24T05:24:24;14.93;;;5.68;;
46318;SDS011;32042;50.916;2.926;2022-08-24T05:26:50;11.23;;;4.43;;
46318;SDS011;32042;50.916;2.926;2022-08-24T05:29:17;8.90;;;5.30;;
46318;SDS011;32042;50.916;2.926;2022-08-24T05:31:43;10.88;;;5.30;;
46318;SDS011;32042;50.916;2.926;2022-08-24T05:34:10;18.35;;;6.47;;
46318;SDS011;32042;50.916;2.926;2022-08-24T05:36:37;14.63;;;6.38;;
46318;SDS011;32042;50.916;2.926;2022-08-24T05:39:08;15.52;;;5.40;;
46318;SDS011;32042;50.916;2.926;2022-08-24T05:41:35;17.08;;;5.10;;
46318;SDS011;32042;50.916;2.926;2022-08-24T05:44:01;18.85;;;6.20;;
46318;SDS011;32042;50.916;2.926;2022-08-24T05:46:27;14.00;;;7.07;;
46318;SDS011;32042;50.916;2.926;2022-08-24T05:48:56;11.23;;;6.68;;
46318;SDS011;32042;50.916;2.926;2022-08-24T05:51:22;8.05;;;7.25;;
46318;SDS011;32042;50.916;2.926;2022-08-24T05:53:48;9.40;;;6.78;;
46318;SDS011;32042;50.916;2.926;2022-08-24T05:56:14;8.30;;;6.85;;
46318;SDS011;32042;50.916;2.926;2022-08-24T05:58:42;10.18;;;7.90;;
46318;SDS011;32042;50.916;2.926;2022-08-24T06:01:09;10.45;;;7.50;;
46318;SDS011;32042;50.916;2.926;2022-08-24T06:03:57;9.63;;;7.25;;
46318;SDS011;32042;50.916;2.926;2022-08-24T06:06:24;8.27;;;7.57;;
46318;SDS011;32042;50.916;2.926;2022-08-24T06:08:51;10.00;;;7.43;;
46318;SDS011;32042;50.916;2.926;2022-08-24T06:11:23;8.30;;;7.47;;
46318;SDS011;32042;50.916;2.926;2022-08-24T06:13:51;12.25;;;8.82;;
46318;SDS011;32042;50.916;2.926;2022-08-24T06:16:18;12.55;;;7.10;;
46318;SDS011;32042;50.916;2.926;2022-08-24T06:18:45;8.10;;;7.43;;
46318;SDS011;32042;50.916;2.926;2022-08-24T06:21:12;8.63;;;7.82;;
46318;SDS011;32042;50.916;2.926;2022-08-24T06:23:40;9.05;;;7.40;;
46318;SDS011;32042;50.916;2.926;2022-08-24T06:26:08;9.50;;;8.27;;
46318;SDS011;32042;50.916;2.926;2022-08-24T06:28:54;9.52;;;8.07;;
46318;SDS011;32042;50.916;2.926;2022-08-24T06:31:21;10.35;;;8.63;;
46318;SDS011;32042;50.916;2.926;2022-08-24T06:33:50;13.85;;;8.50;;
46318;SDS011;32042;50.916;2.926;2022-08-24T06:36:16;9.43;;;8.23;;
46318;SDS011;32042;50.916;2.926;2022-08-24T06:38:42;11.10;;;8.82;;
46318;SDS011;32042;50.916;2.926;2022-08-24T06:41:08;12.38;;;8.90;;
46318;SDS011;32042;50.916;2.926;2022-08-24T06:43:35;10.80;;;9.55;;
46318;SDS011;32042;50.916;2.926;2022-08-24T06:46:01;10.45;;;8.85;;
46318;SDS011;32042;50.916;2.926;2022-08-24T06:48:28;10.75;;;9.40;;
46318;SDS011;32042;50.916;2.926;2022-08-24T06:50:57;10.75;;;9.63;;
46318;SDS011;32042;50.916;2.926;2022-08-24T06:53:24;18.00;;;9.20;;
46318;SDS011;32042;50.916;2.926;2022-08-24T06:55:55;7.07;;;6.28;;
46318;SDS011;32042;50.916;2.926;2022-08-24T06:58:23;12.93;;;7.97;;
46318;SDS011;32042;50.916;2.926;2022-08-24T07:00:52;9.30;;;7.30;;
46318;SDS011;32042;50.916;2.926;2022-08-24T07:03:19;11.25;;;7.45;;
46318;SDS011;32042;50.916;2.926;2022-08-24T07:05:48;10.23;;;6.18;;
46318;SDS011;32042;50.916;2.926;2022-08-24T07:08:20;8.27;;;5.82;;
46318;SDS011;32042;50.916;2.926;2022-08-24T07:10:46;6.28;;;5.68;;
46318;SDS011;32042;50.916;2.926;2022-08-24T07:13:12;6.93;;;6.20;;
46318;SDS011;32042;50.916;2.926;2022-08-24T07:15:39;5.70;;;5.20;;
46318;SDS011;32042;50.916;2.926;2022-08-24T07:18:05;8.65;;;5.30;;
46318;SDS011;32042;50.916;2.926;2022-08-24T07:20:35;6.07;;;4.47;;
46318;SDS011;32042;50.916;2.926;2022-08-24T07:23:02;5.45;;;4.95;;
46318;SDS011;32042;50.916;2.926;2022-08-24T07:25:30;3.88;;;3.35;;
46318;SDS011;32042;50.916;2.926;2022-08-24T07:27:57;3.38;;;2.97;;
46318;SDS011;32042;50.916;2.926;2022-08-24T07:30:25;5.72;;;3.95;;
46318;SDS011;32042;50.916;2.926;2022-08-24T07:32:51;5.78;;;5.28;;
46318;SDS011;32042;50.916;2.926;2022-08-24T07:35:17;6.85;;;3.70;;
46318;SDS011;32042;50.916;2.926;2022-08-24T07:37:43;3.17;;;2.85;;
46318;SDS011;32042;50.916;2.926;2022-08-24T07:40:09;4.22;;;2.83;;
46318;SDS011;32042;50.916;2.926;2022-08-24T07:42:35;3.38;;;3.08;;
46318;SDS011;32042;50.916;2.926;2022-08-24T07:45:01;4.35;;;3.90;;
46318;SDS011;32042;50.916;2.926;2022-08-24T07:47:27;4.72;;;4.22;;
46318;SDS011;32042;50.916;2.926;2022-08-24T07:49:53;5.53;;;3.78;;
46318;SDS011;32042;50.916;2.926;2022-08-24T07:52:18;4.03;;;3.65;;
46318;SDS011;32042;50.916;2.926;2022-08-24T07:54:44;4.75;;;3.72;;
46318;SDS011;32042;50.916;2.926;2022-08-24T07:57:10;3.78;;;3.47;;
46318;SDS011;32042;50.916;2.926;2022-08-24T07:59:36;4.32;;;3.13;;
46318;SDS011;32042;50.916;2.926;2022-08-24T08:02:02;2.58;;;2.38;;
46318;SDS011;32042;50.916;2.926;2022-08-24T08:04:29;2.05;;;1.85;;
46318;SDS011;32042;50.916;2.926;2022-08-24T08:06:56;2.78;;;2.15;;
46318;SDS011;32042;50.916;2.926;2022-08-24T08:09:22;2.90;;;1.77;;
46318;SDS011;32042;50.916;2.926;2022-08-24T08:11:48;2.20;;;2.00;;
46318;SDS011;32042;50.916;2.926;2022-08-24T08:14:14;2.70;;;2.13;;
46318;SDS011;32042;50.916;2.926;2022-08-24T08:16:40;1.90;;;1.58;;
46318;SDS011;32042;50.916;2.926;2022-08-24T08:19:06;4.15;;;1.63;;
46318;SDS011;32042;50.916;2.926;2022-08-24T08:21:32;2.83;;;1.80;;
46318;SDS011;32042;50.916;2.926;2022-08-24T08:24:16;2.30;;;2.20;;
46318;SDS011;32042;50.916;2.926;2022-08-24T08:26:46;2.55;;;2.33;;
46318;SDS011;32042;50.916;2.926;2022-08-24T08:29:16;2.28;;;2.08;;
46318;SDS011;32042;50.916;2.926;2022-08-24T08:31:43;2.92;;;2.10;;
46318;SDS011;32042;50.916;2.926;2022-08-24T08:34:11;3.55;;;1.90;;
46318;SDS011;32042;50.916;2.926;2022-08-24T08:36:38;3.08;;;1.80;;
46318;SDS011;32042;50.916;2.926;2022-08-24T08:39:10;2.40;;;2.20;;
46318;SDS011;32042;50.916;2.926;2022-08-24T08:49:53;1.98;;;1.83;;
46318;SDS011;32042;50.916;2.926;2022-08-24T09:00:21;1.60;;;1.50;;
46318;SDS011;32042;50.916;2.926;2022-08-24T09:10:53;1.92;;;1.48;;
46318;SDS011;32042;50.916;2.926;2022-08-24T09:24:23;4.68;;;2.33;;
46318;SDS011;32042;50.916;2.926;2022-08-24T09:30:20;1.98;;;1.65;;
46318;SDS011;32042;50.916;2.926;2022-08-24T09:41:37;3.83;;;1.52;;
46318;SDS011;32042;50.916;2.926;2022-08-24T09:50:50;2.45;;;2.10;;
46318;SDS011;32042;50.916;2.926;2022-08-24T09:53:49;2.08;;;1.98;;
46318;SDS011;32042;50.916;2.926;2022-08-24T10:05:55;3.58;;;2.10;;
46318;SDS011;32042;50.916;2.926;2022-08-24T10:11:25;2.45;;;1.40;;
46318;SDS011;32042;50.916;2.926;2022-08-24T10:20:15;1.50;;;1.40;;
46318;SDS011;32042;50.916;2.926;2022-08-24T10:31:03;2.15;;;1.80;;
46318;SDS011;32042;50.916;2.926;2022-08-24T10:33:44;3.63;;;1.52;;
46318;SDS011;32042;50.916;2.926;2022-08-24T10:36:30;3.72;;;1.60;;
46318;SDS011;32042;50.916;2.926;2022-08-24T10:53:48;2.10;;;1.65;;
46318;SDS011;32042;50.916;2.926;2022-08-24T10:56:17;4.18;;;1.48;;
46318;SDS011;32042;50.916;2.926;2022-08-24T11:01:32;1.67;;;1.58;;
46318;SDS011;32042;50.916;2.926;2022-08-24T11:04:02;2.20;;;1.33;;
46318;SDS011;32042;50.916;2.926;2022-08-24T11:06:43;1.48;;;1.33;;
46318;SDS011;32042;50.916;2.926;2022-08-24T11:09:26;4.35;;;1.35;;
46318;SDS011;32042;50.916;2.926;2022-08-24T11:12:16;3.92;;;0.82;;
46318;SDS011;32042;50.916;2.926;2022-08-24T11:14:46;0.98;;;0.93;;
46318;SDS011;32042;50.916;2.926;2022-08-24T11:17:16;1.25;;;1.00;;
46318;SDS011;32042;50.916;2.926;2022-08-24T11:19:46;1.40;;;0.70;;
46318;SDS011;32042;50.916;2.926;2022-08-24T11:22:30;1.40;;;0.80;;
46318;SDS011;32042;50.916;2.926;2022-08-24T11:25:01;9.02;;;0.88;;
46318;SDS011;32042;50.916;2.926;2022-08-24T11:27:47;2.55;;;0.90;;
46318;SDS011;32042;50.916;2.926;2022-08-24T11:32:46;1.02;;;0.90;;
46318;SDS011;32042;50.916;2.926;2022-08-24T11:40:41;0.50;;;0.47;;
46318;SDS011;32042;50.916;2.926;2022-08-24T11:46:05;2.08;;;0.90;;
46318;SDS011;32042;50.916;2.926;2022-08-24T11:48:52;3.35;;;0.80;;
46318;SDS011;32042;50.916;2.926;2022-08-24T11:54:18;1.77;;;0.90;;
46318;SDS011;32042;50.916;2.926;2022-08-24T11:56:53;2.38;;;0.80;;
46318;SDS011;32042;50.916;2.926;2022-08-24T11:59:44;1.05;;;0.70;;
46318;SDS011;32042;50.916;2.926;2022-08-24T12:02:28;1.90;;;0.82;;
46318;SDS011;32042;50.916;2.926;2022-08-24T12:17:59;2.17;;;1.00;;
46318;SDS011;32042;50.916;2.926;2022-08-24T12:20:42;1.00;;;0.90;;
46318;SDS011;32042;50.916;2.926;2022-08-24T12:23:13;1.83;;;0.88;;
46318;SDS011;32042;50.916;2.926;2022-08-24T12:25:58;3.05;;;0.85;;
46318;SDS011;32042;50.916;2.926;2022-08-24T12:28:35;1.27;;;0.95;;
46318;SDS011;32042;50.916;2.926;2022-08-24T12:31:18;1.38;;;0.70;;
46318;SDS011;32042;50.916;2.926;2022-08-24T12:33:58;2.00;;;0.80;;
46318;SDS011;32042;50.916;2.926;2022-08-24T12:36:40;2.67;;;1.17;;
46318;SDS011;32042;50.916;2.926;2022-08-24T12:39:10;2.20;;;1.25;;
46318;SDS011;32042;50.916;2.926;2022-08-24T12:41:47;3.60;;;0.90;;
46318;SDS011;32042;50.916;2.926;2022-08-24T12:44:19;3.70;;;0.90;;
46318;SDS011;32042;50.916;2.926;2022-08-24T12:46:52;2.35;;;1.38;;
46318;SDS011;32042;50.916;2.926;2022-08-24T13:00:52;3.20;;;0.63;;
46318;SDS011;32042;50.916;2.926;2022-08-24T13:03:24;0.90;;;0.57;;
46318;SDS011;32042;50.916;2.926;2022-08-24T13:06:00;0.70;;;0.70;;
46318;SDS011;32042;50.916;2.926;2022-08-24T13:08:38;9.43;;;1.30;;
46318;SDS011;32042;50.916;2.926;2022-08-24T13:11:12;4.43;;;0.80;;
46318;SDS011;32042;50.916;2.926;2022-08-24T13:13:42;1.38;;;0.60;;
46318;SDS011;32042;50.916;2.926;2022-08-24T13:16:08;2.05;;;0.70;;
46318;SDS011;32042;50.916;2.926;2022-08-24T13:18:45;1.70;;;0.55;;
46318;SDS011;32042;50.916;2.926;2022-08-24T13:21:33;1.20;;;0.90;;
46318;SDS011;32042;50.916;2.926;2022-08-24T13:26:55;1.48;;;0.65;;
46318;SDS011;32042;50.916;2.926;2022-08-24T13:32:34;1.17;;;0.57;;
46318;SDS011;32042;50.916;2.926;2022-08-24T13:40:50;0.50;;;0.50;;
46318;SDS011;32042;50.916;2.926;2022-08-24T13:43:29;8.20;;;0.93;;
46318;SDS011;32042;50.916;2.926;2022-08-24T13:51:47;3.92;;;0.65;;
46318;SDS011;32042;50.916;2.926;2022-08-24T13:57:03;0.70;;;0.70;;
46318;SDS011;32042;50.916;2.926;2022-08-24T14:10:33;1.85;;;0.60;;
46318;SDS011;32042;50.916;2.926;2022-08-24T14:16:04;3.63;;;0.60;;
46318;SDS011;32042;50.916;2.926;2022-08-24T14:21:33;3.03;;;0.43;;
46318;SDS011;32042;50.916;2.926;2022-08-24T14:27:47;2.53;;;0.80;;
46318;SDS011;32042;50.916;2.926;2022-08-24T14:30:35;1.60;;;0.80;;
46318;SDS011;32042;50.916;2.926;2022-08-24T14:35:29;2.20;;;0.80;;
46318;SDS011;32042;50.916;2.926;2022-08-24T14:40:41;3.35;;;0.85;;
46318;SDS011;32042;50.916;2.926;2022-08-24T14:46:41;1.98;;;0.60;;
46318;SDS011;32042;50.916;2.926;2022-08-24T14:49:16;3.35;;;0.70;;
46318;SDS011;32042;50.916;2.926;2022-08-24T14:52:03;0.60;;;0.60;;
46318;SDS011;32042;50.916;2.926;2022-08-24T14:55:29;3.03;;;0.80;;
46318;SDS011;32042;50.916;2.926;2022-08-24T15:03:39;2.10;;;0.70;;
46318;SDS011;32042;50.916;2.926;2022-08-24T15:09:16;1.40;;;0.80;;
46318;SDS011;32042;50.916;2.926;2022-08-24T15:11:49;1.75;;;0.63;;
46318;SDS011;32042;50.916;2.926;2022-08-24T15:14:21;3.55;;;1.13;;
46318;SDS011;32042;50.916;2.926;2022-08-24T15:17:09;0.88;;;0.80;;
46318;SDS011;32042;50.916;2.926;2022-08-24T15:19:57;3.97;;;0.90;;
46318;SDS011;32042;50.916;2.926;2022-08-24T15:25:38;5.10;;;0.85;;
46318;SDS011;32042;50.916;2.926;2022-08-24T15:28:13;2.33;;;0.90;;
46318;SDS011;32042;50.916;2.926;2022-08-24T15:33:24;3.42;;;0.90;;
46318;SDS011;32042;50.916;2.926;2022-08-24T15:38:31;3.00;;;0.85;;
46318;SDS011;32042;50.916;2.926;2022-08-24T15:41:03;1.52;;;0.63;;
46318;SDS011;32042;50.916;2.926;2022-08-24T15:43:35;1.58;;;0.80;;
46318;SDS011;32042;50.916;2.926;2022-08-24T15:46:09;3.13;;;1.00;;
46318;SDS011;32042;50.916;2.926;2022-08-24T15:48:36;2.50;;;0.80;;
46318;SDS011;32042;50.916;2.926;2022-08-24T15:51:04;1.65;;;0.80;;
46318;SDS011;32042;50.916;2.926;2022-08-24T15:58:44;0.85;;;0.70;;
46318;SDS011;32042;50.916;2.926;2022-08-24T16:03:59;2.45;;;1.10;;
46318;SDS011;32042;50.916;2.926;2022-08-24T16:11:36;3.20;;;1.02;;
46318;SDS011;32042;50.916;2.926;2022-08-24T16:14:05;3.22;;;1.02;;
46318;SDS011;32042;50.916;2.926;2022-08-24T16:16:55;3.60;;;0.90;;
46318;SDS011;32042;50.916;2.926;2022-08-24T16:19:23;2.72;;;0.85;;
46318;SDS011;32042;50.916;2.926;2022-08-24T16:22:13;2.70;;;0.85;;
46318;SDS011;32042;50.916;2.926;2022-08-24T16:24:47;4.32;;;1.15;;
46318;SDS011;32042;50.916;2.926;2022-08-24T16:28:32;4.47;;;1.02;;
46318;SDS011;32042;50.916;2.926;2022-08-24T16:35:55;2.00;;;0.93;;
46318;SDS011;32042;50.916;2.926;2022-08-24T16:38:23;4.00;;;1.20;;
46318;SDS011;32042;50.916;2.926;2022-08-24T16:40:49;5.28;;;1.30;;
46318;SDS011;32042;50.916;2.926;2022-08-24T16:43:15;2.72;;;0.88;;
46318;SDS011;32042;50.916;2.926;2022-08-24T16:45:40;0.70;;;0.70;;
46318;SDS011;32042;50.916;2.926;2022-08-24T16:48:06;2.25;;;0.80;;
46318;SDS011;32042;50.916;2.926;2022-08-24T16:50:32;2.33;;;1.20;;
46318;SDS011;32042;50.916;2.926;2022-08-24T16:52:58;2.15;;;1.20;;
46318;SDS011;32042;50.916;2.926;2022-08-24T16:55:24;2.67;;;1.00;;
46318;SDS011;32042;50.916;2.926;2022-08-24T16:57:52;4.45;;;1.45;;
46318;SDS011;32042;50.916;2.926;2022-08-24T17:00:20;3.88;;;1.00;;
46318;SDS011;32042;50.916;2.926;2022-08-24T17:02:46;3.10;;;0.98;;
46318;SDS011;32042;50.916;2.926;2022-08-24T17:05:13;4.15;;;1.05;;
46318;SDS011;32042;50.916;2.926;2022-08-24T17:07:40;3.45;;;1.08;;
46318;SDS011;32042;50.916;2.926;2022-08-24T17:10:07;1.10;;;0.73;;
46318;SDS011;32042;50.916;2.926;2022-08-24T17:12:35;6.18;;;1.17;;
46318;SDS011;32042;50.916;2.926;2022-08-24T17:15:05;4.03;;;1.00;;
46318;SDS011;32042;50.916;2.926;2022-08-24T17:17:32;7.65;;;1.33;;
46318;SDS011;32042;50.916;2.926;2022-08-24T17:19:58;1.25;;;1.15;;
46318;SDS011;32042;50.916;2.926;2022-08-24T17:22:24;6.18;;;1.23;;
46318;SDS011;32042;50.916;2.926;2022-08-24T17:24:50;2.22;;;1.15;;
46318;SDS011;32042;50.916;2.926;2022-08-24T17:27:17;2.40;;;1.02;;
46318;SDS011;32042;50.916;2.926;2022-08-24T17:29:45;5.38;;;1.23;;
46318;SDS011;32042;50.916;2.926;2022-08-24T17:32:12;1.85;;;1.00;;
46318;SDS011;32042;50.916;2.926;2022-08-24T17:34:38;5.00;;;1.20;;
46318;SDS011;32042;50.916;2.926;2022-08-24T17:37:05;7.20;;;1.30;;
46318;SDS011;32042;50.916;2.926;2022-08-24T17:39:32;3.40;;;1.13;;
46318;SDS011;32042;50.916;2.926;2022-08-24T17:41:58;2.78;;;0.80;;
46318;SDS011;32042;50.916;2.926;2022-08-24T17:44:25;3.03;;;0.93;;
46318;SDS011;32042;50.916;2.926;2022-08-24T17:46:54;2.75;;;1.20;;
46318;SDS011;32042;50.916;2.926;2022-08-24T17:49:22;2.28;;;1.90;;
46318;SDS011;32042;50.916;2.926;2022-08-24T17:51:50;2.67;;;1.20;;
46318;SDS011;32042;50.916;2.926;2022-08-24T17:54:17;2.33;;;1.10;;
46318;SDS011;32042;50.916;2.926;2022-08-24T17:56:43;3.88;;;0.95;;
46318;SDS011;32042;50.916;2.926;2022-08-24T17:59:12;3.13;;;1.20;;
46318;SDS011;32042;50.916;2.926;2022-08-24T18:01:47;3.47;;;1.05;;
46318;SDS011;32042;50.916;2.926;2022-08-24T18:04:16;2.78;;;1.10;;
46318;SDS011;32042;50.916;2.926;2022-08-24T18:06:43;1.40;;;1.30;;
46318;SDS011;32042;50.916;2.926;2022-08-24T18:09:21;3.33;;;1.35;;
46318;SDS011;32042;50.916;2.926;2022-08-24T18:11:54;6.07;;;1.85;;
46318;SDS011;32042;50.916;2.926;2022-08-24T18:14:19;4.35;;;2.05;;
46318;SDS011;32042;50.916;2.926;2022-08-24T18:16:45;2.95;;;2.63;;
46318;SDS011;32042;50.916;2.926;2022-08-24T18:19:11;2.55;;;1.80;;
46318;SDS011;32042;50.916;2.926;2022-08-24T18:21:38;5.57;;;1.50;;
46318;SDS011;32042;50.916;2.926;2022-08-24T18:24:04;4.75;;;2.15;;
46318;SDS011;32042;50.916;2.926;2022-08-24T18:26:30;4.20;;;3.17;;
46318;SDS011;32042;50.916;2.926;2022-08-24T18:28:58;3.65;;;2.30;;
46318;SDS011;32042;50.916;2.926;2022-08-24T18:31:27;2.50;;;1.70;;
46318;SDS011;32042;50.916;2.926;2022-08-24T18:33:54;2.88;;;1.30;;
46318;SDS011;32042;50.916;2.926;2022-08-24T18:36:20;2.85;;;1.52;;
46318;SDS011;32042;50.916;2.926;2022-08-24T18:38:45;2.47;;;1.50;;
46318;SDS011;32042;50.916;2.926;2022-08-24T18:41:11;2.28;;;1.20;;
46318;SDS011;32042;50.916;2.926;2022-08-24T18:43:37;3.22;;;1.48;;
46318;SDS011;32042;50.916;2.926;2022-08-24T18:46:03;3.25;;;1.40;;
46318;SDS011;32042;50.916;2.926;2022-08-24T18:48:30;2.50;;;1.50;;